메인 페이지
METAR-TAF:

METAR-TAF

공항 :

아테네, 그리스

아테네 국제공항

위도: 37-56N, 경도: 023-56E, 고도: 94m

현재 날씨관측

예보는 15분 전, 09:20시(UTC)에 발표되었습니다.
북서18kt, 순간 최대 풍속 29kt
온도 10°C
습도 43%
기압 1007 hPa
시정 10km 이상
고도 3000ft 상공 구름 보통

METAR: LGAV 180920Z 31018G29KT 9999 SCT030 10/M02 Q1007 NOSIG

시각: 11:35 (09:35 UTC)

예보

예보는 4 시간 35분 전, 05:00시(UTC)에 발표되었습니다.
예보 대상 시간: 18일 06시부터 19일 06시까지 (UTC)
북서28kt, 순간 최대 풍속 40kt
시정 10km 이상
고도 4000ft 상공 구름 보통
고도 7000ft 상공 구름 보통
확률 30% :
일시적
18일 06시부터 18일 14시까지 (UTC)
시정: 5000m
고도 1500ft 상공 구름 보통
고도 2000ft 상공 구름 많음
고도 7000ft 상공 구름 많음
전환 중
18일 12시부터 18일 14시까지 (UTC)
북서20kt, 순간 최대 풍속 30kt
전환 중
18일 20시부터 18일 22시까지 (UTC)
서북서15kt

TAF: LGAV 180500Z 1806/1906 31028G40KT 9999 SCT040 SCT070 PROB30 TEMPO 1806/1814 5000 RA SCT015 BKN020 BKN070 BECMG 1812/1814 31020G30KT BECMG 1820/1822 30015KT

4,000개 이상의 공항 관측 자료 및 예보 (METAR 및 TAF 보고).

지도상에서 검색 가능한 기상관측소가 노란 점과 빨간 점으로 표시되어 있습니다.

기상관측소 명을 보려면 표시 위로 마우스를 이동하세요.

날씨 관측과 예보를 보려면 클릭하세요.

지도 변경 : 확대하려면 엑스 표시가 있는 녹색 버튼, 축소하려면 빼기 표시가 있는 녹색 버튼, 다음 페이지의 지도를 보려면 녹색 화살표를 클릭하세요.


METAR-TAF: